createdAt,value
2019-03-24T00:00:23.069Z,7.88
2019-03-24T00:02:52.574Z,7.94
2019-03-24T00:05:22.021Z,7.88
2019-03-24T00:07:51.437Z,7.85
2019-03-24T00:10:20.880Z,7.82
2019-03-24T00:12:50.301Z,7.74
2019-03-24T00:15:26.066Z,7.73
2019-03-24T00:17:50.959Z,7.69
2019-03-24T00:20:20.409Z,7.62
2019-03-24T00:22:49.821Z,7.61
2019-03-24T00:25:19.261Z,7.56
2019-03-24T00:27:48.678Z,7.53
2019-03-24T00:30:18.118Z,7.43
2019-03-24T00:32:47.540Z,7.46
2019-03-24T00:35:16.985Z,7.46
2019-03-24T00:37:46.506Z,7.39
2019-03-24T00:40:15.949Z,7.28
2019-03-24T00:42:45.400Z,6.97
2019-03-24T00:45:14.841Z,6.80
2019-03-24T00:47:44.252Z,6.59
2019-03-24T00:50:13.700Z,6.49
2019-03-24T00:52:43.116Z,6.38
2019-03-24T00:55:13.027Z,6.34
2019-03-24T00:57:42.439Z,6.44
2019-03-24T01:00:11.880Z,6.50
2019-03-24T01:02:41.293Z,6.50
2019-03-24T01:05:10.745Z,6.54
2019-03-24T01:07:40.167Z,6.55
2019-03-24T01:10:09.605Z,6.47
2019-03-24T01:12:39.049Z,6.50
2019-03-24T01:15:08.773Z,6.48
2019-03-24T01:17:38.687Z,6.49
2019-03-24T01:20:08.461Z,6.47
2019-03-24T01:22:38.808Z,6.16
2019-03-24T01:25:08.229Z,6.24
2019-03-24T01:27:38.023Z,6.20
2019-03-24T01:30:07.687Z,6.20
2019-03-24T01:32:38.331Z,6.16
2019-03-24T01:35:07.777Z,6.16
2019-03-24T01:37:37.194Z,6.14
2019-03-24T01:40:07.255Z,6.13
2019-03-24T01:42:36.714Z,6.11
2019-03-24T01:45:08.271Z,6.11
2019-03-24T01:47:37.712Z,6.05
2019-03-24T01:50:07.582Z,5.94
2019-03-24T01:52:37.037Z,6.01
2019-03-24T01:55:06.711Z,5.99
2019-03-24T01:57:36.154Z,5.93
2019-03-24T02:00:08.519Z,5.67
2019-03-24T02:02:37.976Z,5.57
2019-03-24T02:05:08.344Z,5.50
2019-03-24T02:07:37.794Z,5.55
2019-03-24T02:10:08.527Z,5.54
2019-03-24T02:12:38.077Z,5.54
2019-03-24T02:15:08.979Z,5.52
2019-03-24T02:17:38.436Z,5.47
2019-03-24T02:20:07.930Z,5.45
2019-03-24T02:22:37.375Z,5.49
2019-03-24T02:25:06.970Z,5.46
2019-03-24T02:27:36.421Z,5.46
2019-03-24T02:30:08.851Z,5.44
2019-03-24T02:32:38.300Z,5.34
2019-03-24T02:35:07.941Z,5.36
2019-03-24T02:37:37.378Z,5.31
2019-03-24T02:40:07.749Z,5.28
2019-03-24T02:42:37.203Z,5.23
2019-03-24T02:45:06.989Z,5.22
2019-03-24T02:47:36.742Z,5.18
2019-03-24T02:50:06.534Z,5.20
2019-03-24T02:52:35.992Z,5.20
2019-03-24T02:55:06.859Z,5.28
2019-03-24T02:57:36.810Z,5.28
2019-03-24T03:00:07.696Z,5.24
2019-03-24T03:02:39.517Z,5.24
2019-03-24T03:05:08.964Z,5.24
2019-03-24T03:07:38.789Z,5.20
2019-03-24T03:10:08.234Z,5.20
2019-03-24T03:12:37.657Z,5.21
2019-03-24T03:15:07.817Z,5.32
2019-03-24T03:17:37.258Z,5.37
2019-03-24T03:20:07.153Z,5.39
2019-03-24T03:22:36.761Z,5.43
2019-03-24T03:25:07.214Z,5.48
2019-03-24T03:27:36.742Z,5.52
2019-03-24T03:30:08.856Z,5.54
2019-03-24T03:32:38.297Z,5.51
2019-03-24T03:35:08.038Z,5.44
2019-03-24T03:37:37.481Z,5.40
2019-03-24T03:40:07.302Z,5.39
2019-03-24T03:42:38.066Z,5.34
2019-03-24T03:45:09.777Z,5.25
2019-03-24T03:47:39.784Z,5.30
2019-03-24T03:50:09.201Z,5.31
2019-03-24T03:52:38.638Z,5.31
2019-03-24T03:55:08.080Z,5.29
2019-03-24T03:57:37.497Z,5.25
2019-03-24T04:00:07.712Z,5.20
2019-03-24T04:02:37.134Z,5.17
2019-03-24T04:05:06.766Z,5.11
2019-03-24T04:07:36.172Z,5.10
2019-03-24T04:10:05.939Z,4.99
2019-03-24T04:12:35.363Z,4.99
2019-03-24T04:15:06.711Z,4.99
2019-03-24T04:17:36.124Z,4.87
2019-03-24T04:20:05.988Z,4.87
2019-03-24T04:22:35.447Z,4.86
2019-03-24T04:25:06.374Z,4.86
2019-03-24T04:27:35.797Z,4.80
2019-03-24T04:30:06.034Z,4.75
2019-03-24T04:32:35.429Z,4.69
2019-03-24T04:35:08.195Z,4.64
2019-03-24T04:37:37.619Z,4.62
2019-03-24T04:40:07.713Z,4.56
2019-03-24T04:42:37.117Z,4.53
2019-03-24T04:45:06.745Z,4.49
2019-03-24T04:47:36.169Z,4.47
2019-03-24T04:50:07.446Z,4.43
2019-03-24T04:52:36.861Z,4.39
2019-03-24T04:55:09.073Z,4.38
2019-03-24T04:57:38.494Z,4.31
2019-03-24T05:00:08.948Z,4.33
2019-03-24T05:02:38.366Z,4.30
2019-03-24T05:05:07.993Z,4.30
2019-03-24T05:07:37.404Z,4.31
2019-03-24T05:10:07.217Z,4.32
2019-03-24T05:12:36.783Z,4.33
2019-03-24T05:15:06.289Z,4.37
2019-03-24T05:17:35.704Z,4.33
2019-03-24T05:20:06.586Z,4.36
2019-03-24T05:22:36.012Z,4.39
2019-03-24T05:25:06.007Z,4.38
2019-03-24T05:27:35.420Z,4.43
2019-03-24T05:30:06.612Z,4.37
2019-03-24T05:32:36.033Z,4.37
2019-03-24T05:35:07.028Z,4.31
2019-03-24T05:37:36.783Z,4.48
2019-03-24T05:40:06.224Z,4.61
2019-03-24T05:42:35.639Z,4.65
2019-03-24T05:45:07.117Z,4.75
2019-03-24T05:47:37.530Z,4.83
2019-03-24T05:50:08.187Z,5.04
2019-03-24T05:52:37.808Z,5.13
2019-03-24T05:55:08.037Z,5.28
2019-03-24T05:57:37.452Z,5.21
2019-03-24T06:00:09.831Z,5.20
2019-03-24T06:02:39.245Z,5.27
2019-03-24T06:05:08.686Z,5.32
2019-03-24T06:07:38.110Z,5.42
2019-03-24T06:10:07.969Z,5.49
2019-03-24T06:12:37.396Z,5.58
2019-03-24T06:15:08.122Z,5.64
2019-03-24T06:17:47.165Z,5.73
2019-03-24T06:20:08.679Z,5.80
2019-03-24T06:22:38.499Z,5.88
2019-03-24T06:25:07.986Z,5.95
2019-03-24T06:27:37.489Z,6.08
2019-03-24T06:30:09.634Z,6.19
2019-03-24T06:32:39.044Z,6.23
2019-03-24T06:35:08.484Z,6.28
2019-03-24T06:37:37.891Z,6.40
2019-03-24T06:40:07.335Z,6.45
2019-03-24T06:42:36.815Z,6.50
2019-03-24T06:45:06.747Z,6.63
2019-03-24T06:47:36.199Z,6.74
2019-03-24T06:50:07.244Z,6.82
2019-03-24T06:52:36.692Z,6.95
2019-03-24T06:55:06.104Z,7.07
2019-03-24T06:57:35.927Z,7.15
2019-03-24T07:00:07.279Z,7.22
2019-03-24T07:02:36.733Z,7.36
2019-03-24T07:05:06.717Z,7.52
2019-03-24T07:07:36.162Z,7.66
2019-03-24T07:10:07.714Z,7.79
2019-03-24T07:12:37.220Z,7.96
2019-03-24T07:15:07.304Z,8.05
2019-03-24T07:17:40.626Z,8.18
2019-03-24T07:20:10.042Z,8.25
2019-03-24T07:22:39.534Z,8.37
2019-03-24T07:25:08.908Z,8.49
2019-03-24T07:27:38.365Z,8.64
2019-03-24T07:30:08.544Z,8.67
2019-03-24T07:32:37.985Z,8.73
2019-03-24T07:35:07.913Z,8.79
2019-03-24T07:37:37.428Z,8.83
2019-03-24T07:40:08.979Z,8.93
2019-03-24T07:42:38.425Z,8.98
2019-03-24T07:45:08.850Z,9.19
2019-03-24T07:47:38.581Z,9.28
2019-03-24T07:50:09.543Z,9.20
2019-03-24T07:52:38.980Z,9.28
2019-03-24T07:55:08.393Z,9.36
2019-03-24T07:57:37.837Z,9.56
2019-03-24T08:00:08.588Z,9.72
2019-03-24T08:02:38.027Z,9.78
2019-03-24T08:05:07.446Z,9.72
2019-03-24T08:07:37.153Z,9.80
2019-03-24T08:10:06.903Z,9.88
2019-03-24T08:12:36.340Z,9.97
2019-03-24T08:15:06.124Z,9.95
2019-03-24T08:17:35.578Z,10.04
2019-03-24T08:20:06.972Z,10.12
2019-03-24T08:22:36.418Z,10.27
2019-03-24T08:25:06.712Z,10.42
2019-03-24T08:27:36.334Z,10.60
2019-03-24T08:30:06.194Z,10.70
2019-03-24T08:32:35.646Z,10.78
2019-03-24T08:35:06.069Z,10.95
2019-03-24T08:37:35.525Z,11.11
2019-03-24T08:40:06.813Z,11.42
2019-03-24T08:42:36.742Z,11.50
2019-03-24T08:45:06.316Z,11.57
2019-03-24T08:47:36.445Z,11.73
2019-03-24T08:50:07.201Z,12.09
2019-03-24T08:52:37.221Z,12.07
2019-03-24T08:55:07.108Z,12.11
2019-03-24T08:57:36.543Z,12.45
2019-03-24T09:00:06.535Z,12.45
2019-03-24T09:02:37.233Z,12.81
2019-03-24T09:05:07.252Z,13.28
2019-03-24T09:07:36.699Z,13.50
2019-03-24T09:10:06.390Z,13.59
2019-03-24T09:12:36.432Z,13.61
2019-03-24T09:15:06.287Z,13.67
2019-03-24T09:17:35.819Z,14.05
2019-03-24T09:20:05.527Z,14.50
2019-03-24T09:22:35.424Z,14.96
2019-03-24T09:25:06.916Z,15.92
2019-03-24T09:27:36.329Z,16.96
2019-03-24T09:30:08.169Z,17.35
2019-03-24T09:32:37.589Z,18.00
2019-03-24T09:35:07.038Z,17.88
2019-03-24T09:37:36.450Z,17.63
2019-03-24T09:40:06.969Z,17.96
2019-03-24T09:42:36.396Z,18.58
2019-03-24T09:45:06.431Z,18.93
2019-03-24T09:47:35.846Z,19.48
2019-03-24T09:50:06.431Z,19.94
2019-03-24T09:52:35.855Z,20.32
2019-03-24T09:55:06.722Z,20.70
2019-03-24T09:57:36.129Z,20.64
2019-03-24T10:00:05.577Z,20.75
2019-03-24T10:02:34.996Z,20.88
2019-03-24T10:05:05.447Z,20.92
2019-03-24T10:07:34.861Z,20.42
2019-03-24T10:10:07.710Z,20.74
2019-03-24T10:12:37.196Z,21.24
2019-03-24T10:15:07.016Z,21.33
2019-03-24T10:17:36.428Z,21.58
2019-03-24T10:20:06.447Z,21.75
2019-03-24T10:22:35.860Z,21.70
2019-03-24T10:25:07.089Z,20.12
2019-03-24T10:27:37.201Z,18.61
2019-03-24T10:30:09.624Z,17.64
2019-03-24T10:32:39.036Z,17.78
2019-03-24T10:35:08.553Z,17.67
2019-03-24T10:37:37.963Z,17.66
2019-03-24T10:40:07.412Z,18.25
2019-03-24T10:42:37.164Z,19.10
2019-03-24T10:45:06.792Z,19.57
2019-03-24T10:47:36.209Z,20.09
2019-03-24T10:50:08.169Z,20.21
2019-03-24T10:52:37.745Z,21.28
2019-03-24T10:55:08.524Z,20.82
2019-03-24T10:57:38.183Z,20.69
2019-03-24T11:00:09.466Z,21.69
2019-03-24T11:02:38.883Z,21.87
2019-03-24T11:05:08.819Z,21.19
2019-03-24T11:07:38.250Z,21.65
2019-03-24T11:10:08.268Z,21.80
2019-03-24T11:12:37.686Z,22.20
2019-03-24T11:15:10.444Z,22.67
2019-03-24T11:17:39.855Z,22.82
2019-03-24T11:20:09.300Z,23.22
2019-03-24T11:22:38.719Z,23.29
2019-03-24T11:25:09.046Z,22.04
2019-03-24T11:27:38.533Z,21.48
2019-03-24T11:30:12.409Z,20.66
2019-03-24T11:32:41.823Z,20.66
2019-03-24T11:35:11.267Z,20.34
2019-03-24T11:37:40.694Z,20.37
2019-03-24T11:40:10.201Z,20.10
2019-03-24T11:42:39.617Z,20.56
2019-03-24T11:45:10.002Z,20.60
2019-03-24T11:47:39.432Z,20.85
2019-03-24T11:50:08.869Z,21.85
2019-03-24T11:52:38.416Z,21.72
2019-03-24T11:55:10.058Z,22.19
2019-03-24T11:57:39.502Z,22.09
2019-03-24T12:00:13.691Z,22.32
2019-03-24T12:02:43.149Z,21.89
2019-03-24T12:05:12.564Z,22.20
2019-03-24T12:07:42.008Z,22.68
2019-03-24T12:10:11.426Z,23.16
2019-03-24T12:12:40.865Z,23.78
2019-03-24T12:15:10.276Z,23.91
2019-03-24T12:17:39.715Z,23.91
2019-03-24T12:20:09.300Z,24.23
2019-03-24T12:22:39.228Z,24.36
2019-03-24T12:25:08.636Z,23.99
2019-03-24T12:27:38.371Z,24.98
2019-03-24T12:30:09.026Z,25.09
2019-03-24T12:32:38.669Z,25.06
2019-03-24T12:35:08.352Z,24.88
2019-03-24T12:37:37.797Z,24.97
2019-03-24T12:40:08.921Z,25.55
2019-03-24T12:42:39.044Z,25.56
2019-03-24T12:45:09.003Z,25.99
2019-03-24T12:47:38.548Z,25.95
2019-03-24T12:50:09.778Z,25.21
2019-03-24T12:52:39.716Z,25.09
2019-03-24T12:55:09.920Z,24.96
2019-03-24T12:57:39.476Z,25.28
2019-03-24T13:00:10.722Z,24.77
2019-03-24T13:02:40.302Z,25.55
2019-03-24T13:05:09.865Z,25.31
2019-03-24T13:07:39.297Z,25.12
2019-03-24T13:10:08.711Z,23.47
2019-03-24T13:12:38.158Z,22.33
2019-03-24T13:15:08.031Z,22.15
2019-03-24T13:17:37.639Z,21.86
2019-03-24T13:20:07.305Z,20.71
2019-03-24T13:22:36.805Z,19.63
2019-03-24T13:25:06.955Z,19.11
2019-03-24T13:27:36.598Z,18.58
2019-03-24T13:30:06.637Z,18.15
2019-03-24T13:32:36.405Z,17.32
2019-03-24T13:35:06.467Z,17.55
2019-03-24T13:37:35.913Z,18.78
2019-03-24T13:40:05.329Z,19.01
2019-03-24T13:42:34.772Z,20.47
2019-03-24T13:45:05.727Z,21.07
2019-03-24T13:47:35.470Z,21.18
2019-03-24T13:50:06.585Z,21.91
2019-03-24T13:52:36.490Z,22.19
2019-03-24T13:55:06.656Z,22.33
2019-03-24T13:57:36.551Z,20.99
2019-03-24T14:00:07.098Z,19.93
2019-03-24T14:02:36.546Z,19.15
2019-03-24T14:05:05.970Z,18.48
2019-03-24T14:07:35.502Z,18.28
2019-03-24T14:10:06.621Z,17.63
2019-03-24T14:12:36.484Z,17.44
2019-03-24T14:15:06.574Z,17.24
2019-03-24T14:17:36.632Z,17.17
2019-03-24T14:20:08.738Z,17.04
2019-03-24T14:22:38.181Z,17.08
2019-03-24T14:25:08.028Z,17.10
2019-03-24T14:27:37.492Z,16.93
2019-03-24T14:30:08.051Z,16.91
2019-03-24T14:32:37.498Z,17.14
2019-03-24T14:35:06.925Z,17.26
2019-03-24T14:37:36.484Z,17.25
2019-03-24T14:40:06.193Z,16.85
2019-03-24T14:42:35.630Z,16.54
2019-03-24T14:45:07.257Z,16.31
2019-03-24T14:47:36.913Z,16.18
2019-03-24T14:50:08.069Z,16.05
2019-03-24T14:52:37.485Z,15.79
2019-03-24T14:55:07.262Z,15.78
2019-03-24T14:57:36.673Z,16.28
2019-03-24T15:00:09.153Z,15.60
2019-03-24T15:02:40.780Z,15.21
2019-03-24T15:05:09.720Z,14.69
2019-03-24T15:07:39.240Z,14.77
2019-03-24T15:10:08.685Z,14.60
2019-03-24T15:12:38.101Z,14.67
2019-03-24T15:15:08.968Z,14.70
2019-03-24T15:17:38.384Z,14.59
2019-03-24T15:20:08.052Z,14.75
2019-03-24T15:22:37.468Z,14.88
2019-03-24T15:25:07.268Z,14.92
2019-03-24T15:27:36.681Z,14.97
2019-03-24T15:30:07.573Z,14.91
2019-03-24T15:32:36.991Z,14.92
2019-03-24T15:35:07.268Z,14.72
2019-03-24T15:37:36.678Z,14.67
2019-03-24T15:40:06.351Z,14.56
2019-03-24T15:42:35.765Z,14.10
2019-03-24T15:45:08.316Z,14.09
2019-03-24T15:47:37.735Z,14.09
2019-03-24T15:50:07.615Z,14.08
2019-03-24T15:52:37.032Z,14.07
2019-03-24T15:55:07.265Z,14.03
2019-03-24T15:57:36.681Z,13.82
2019-03-24T16:00:07.255Z,13.77
2019-03-24T16:02:36.670Z,13.72
2019-03-24T16:05:06.676Z,13.51
2019-03-24T16:07:36.458Z,13.47
2019-03-24T16:10:07.270Z,13.27
2019-03-24T16:12:36.689Z,13.29
2019-03-24T16:15:09.577Z,13.13
2019-03-24T16:17:39.256Z,13.12
2019-03-24T16:20:09.373Z,13.04
2019-03-24T16:22:38.790Z,13.04
2019-03-24T16:25:08.239Z,13.00
2019-03-24T16:27:37.660Z,13.01
2019-03-24T16:30:07.253Z,12.99
2019-03-24T16:32:36.669Z,13.01
2019-03-24T16:35:06.103Z,12.94
2019-03-24T16:37:35.630Z,12.91
2019-03-24T16:40:08.050Z,12.91
2019-03-24T16:42:37.475Z,12.77
2019-03-24T16:45:07.245Z,12.68
2019-03-24T16:47:36.666Z,12.68
2019-03-24T16:50:07.264Z,12.62
2019-03-24T16:52:36.688Z,12.55
2019-03-24T16:55:08.830Z,12.57
2019-03-24T16:57:38.274Z,12.57
2019-03-24T17:00:08.062Z,12.55
2019-03-24T17:02:37.482Z,12.50
2019-03-24T17:05:07.399Z,12.42
2019-03-24T17:07:36.819Z,12.39
2019-03-24T17:10:07.264Z,12.38
2019-03-24T17:12:36.680Z,12.25
2019-03-24T17:15:07.242Z,12.16
2019-03-24T17:17:36.695Z,12.06
2019-03-24T17:20:07.569Z,11.98
2019-03-24T17:22:37.346Z,11.88
2019-03-24T17:25:07.412Z,11.82
2019-03-24T17:27:37.256Z,11.73
2019-03-24T17:30:09.576Z,11.69
2019-03-24T17:32:39.219Z,11.61
2019-03-24T17:35:08.645Z,11.56
2019-03-24T17:37:38.257Z,11.50
2019-03-24T17:40:08.502Z,11.40
2019-03-24T17:42:38.092Z,11.31
2019-03-24T17:45:09.754Z,11.26
2019-03-24T17:47:39.259Z,11.17
2019-03-24T17:50:11.912Z,11.12
2019-03-24T17:52:40.718Z,11.12
2019-03-24T17:55:10.151Z,11.06
2019-03-24T17:57:39.716Z,10.95
2019-03-24T18:00:15.966Z,10.95
2019-03-24T18:02:46.172Z,10.88
2019-03-24T18:05:15.594Z,10.85
2019-03-24T18:07:45.041Z,10.78
2019-03-24T18:10:14.467Z,10.69
2019-03-24T18:12:43.921Z,10.57
2019-03-24T18:15:13.347Z,10.58
2019-03-24T18:17:42.832Z,10.51
2019-03-24T18:20:13.980Z,10.54
2019-03-24T18:22:43.431Z,10.51
2019-03-24T18:25:12.928Z,10.52
2019-03-24T18:27:42.392Z,10.45
2019-03-24T18:30:11.823Z,10.39
2019-03-24T18:32:41.283Z,10.32
2019-03-24T18:35:10.704Z,10.22
2019-03-24T18:37:40.152Z,10.20
2019-03-24T18:40:09.579Z,10.16
2019-03-24T18:42:39.246Z,10.18
2019-03-24T18:45:13.212Z,10.19
2019-03-24T18:47:44.125Z,10.24
2019-03-24T18:50:15.466Z,10.35
2019-03-24T18:52:50.960Z,10.34
2019-03-24T18:55:22.132Z,10.29
2019-03-24T18:57:52.912Z,10.30
2019-03-24T19:00:22.376Z,10.33
2019-03-24T19:02:54.015Z,10.30
2019-03-24T19:05:29.303Z,10.32
2019-03-24T19:08:08.102Z,10.36
2019-03-24T19:10:38.158Z,10.29
2019-03-24T19:13:08.763Z,10.28
2019-03-24T19:15:39.149Z,10.29
2019-03-24T19:18:12.635Z,10.30
2019-03-24T19:20:42.354Z,10.28
2019-03-24T19:23:17.204Z,10.26
2019-03-24T19:25:46.641Z,10.24
2019-03-24T19:28:16.113Z,10.19
2019-03-24T19:30:45.537Z,10.16
2019-03-24T19:33:14.993Z,10.08
2019-03-24T19:35:44.408Z,10.07
2019-03-24T19:38:13.863Z,10.02
2019-03-24T19:40:43.275Z,9.92
2019-03-24T19:43:12.871Z,9.87
2019-03-24T19:45:42.291Z,9.74
2019-03-24T19:48:11.741Z,9.71
2019-03-24T19:50:41.166Z,9.69
2019-03-24T19:53:10.616Z,9.64
2019-03-24T19:55:40.073Z,9.56
2019-03-24T19:58:09.493Z,9.56
2019-03-24T20:00:38.968Z,9.51
2019-03-24T20:03:08.384Z,9.50
2019-03-24T20:05:38.149Z,9.41
2019-03-24T20:08:07.569Z,9.46
2019-03-24T20:10:37.399Z,9.48
2019-03-24T20:13:06.818Z,9.48
2019-03-24T20:15:36.266Z,9.44
2019-03-24T20:18:05.684Z,9.47
2019-03-24T20:20:35.225Z,9.42
2019-03-24T20:23:04.640Z,9.42
2019-03-24T20:25:34.509Z,9.37
2019-03-24T20:28:03.908Z,9.41
2019-03-24T20:30:33.353Z,9.32
2019-03-24T20:33:02.764Z,9.27
2019-03-24T20:35:32.220Z,9.26
2019-03-24T20:38:01.637Z,9.21
2019-03-24T20:40:31.084Z,9.17
2019-03-24T20:43:00.505Z,9.16
2019-03-24T20:45:29.962Z,9.23
2019-03-24T20:47:59.381Z,9.23
2019-03-24T20:50:28.821Z,9.24
2019-03-24T20:53:05.484Z,9.23
2019-03-24T20:55:29.385Z,9.24
2019-03-24T20:57:58.788Z,9.19
2019-03-24T21:00:32.575Z,9.15
2019-03-24T21:03:02.158Z,9.17
2019-03-24T21:05:31.595Z,9.12
2019-03-24T21:08:01.008Z,9.14
2019-03-24T21:10:30.449Z,9.11
2019-03-24T21:12:59.859Z,9.02
2019-03-24T21:15:29.312Z,9.00
2019-03-24T21:17:58.722Z,8.90
2019-03-24T21:20:28.171Z,8.85
2019-03-24T21:22:57.582Z,8.75
2019-03-24T21:25:27.027Z,8.62
2019-03-24T21:27:56.435Z,8.48
2019-03-24T21:30:33.268Z,8.29
2019-03-24T21:33:02.698Z,8.14
2019-03-24T21:35:32.150Z,7.98
2019-03-24T21:38:01.570Z,7.83
2019-03-24T21:40:31.021Z,7.73
2019-03-24T21:43:00.439Z,7.52
2019-03-24T21:45:29.871Z,7.39
2019-03-24T21:47:59.284Z,7.22
2019-03-24T21:50:28.735Z,7.10
2019-03-24T21:52:58.154Z,7.01
2019-03-24T21:55:27.598Z,6.99
2019-03-24T21:57:58.008Z,6.94
2019-03-24T22:00:34.497Z,6.89
2019-03-24T22:03:04.492Z,6.76
2019-03-24T22:05:33.901Z,6.65
2019-03-24T22:08:03.349Z,6.63
2019-03-24T22:10:32.759Z,6.63
2019-03-24T22:13:02.203Z,6.56
2019-03-24T22:15:31.615Z,6.40
2019-03-24T22:18:01.060Z,6.19
2019-03-24T22:20:30.468Z,6.05
2019-03-24T22:22:59.909Z,6.00
2019-03-24T22:25:29.325Z,5.97
2019-03-24T22:27:58.765Z,5.84
2019-03-24T22:30:29.358Z,5.79
2019-03-24T22:32:58.903Z,5.71
2019-03-24T22:35:28.322Z,5.63
2019-03-24T22:37:57.766Z,5.70
2019-03-24T22:40:27.192Z,5.72
2019-03-24T22:42:56.632Z,5.68
2019-03-24T22:45:26.075Z,5.61
2019-03-24T22:47:55.512Z,5.50
2019-03-24T22:50:24.923Z,5.37
2019-03-24T22:52:54.364Z,5.28
2019-03-24T22:55:23.779Z,5.18
2019-03-24T22:57:53.223Z,5.08
2019-03-24T23:00:24.274Z,5.04
2019-03-24T23:02:53.717Z,5.00
2019-03-24T23:05:23.129Z,4.94
2019-03-24T23:07:52.577Z,4.88
2019-03-24T23:10:22.001Z,4.77
2019-03-24T23:12:51.450Z,4.67
2019-03-24T23:15:20.868Z,4.63
2019-03-24T23:17:50.312Z,4.63
2019-03-24T23:20:19.733Z,4.59
2019-03-24T23:22:49.175Z,4.73
2019-03-24T23:25:18.592Z,4.75
2019-03-24T23:27:48.033Z,4.69
2019-03-24T23:30:17.475Z,4.63
2019-03-24T23:32:46.922Z,4.37
2019-03-24T23:35:16.337Z,4.25
2019-03-24T23:37:45.771Z,4.21
2019-03-24T23:40:15.185Z,4.20
2019-03-24T23:42:44.625Z,4.17
2019-03-24T23:45:14.040Z,4.19
2019-03-24T23:47:43.489Z,4.18
2019-03-24T23:50:12.905Z,4.11
2019-03-24T23:52:42.354Z,3.98
2019-03-24T23:55:11.773Z,3.86
2019-03-24T23:57:41.214Z,3.74
